Summit City, California
Current Conditions -  °F | °C
As of 9:01 AM on Friday 31 Oct 2014 (Local Time) from KRDD Reporting Station
Light Rain Light Rain  
Wind Chill: 56°   Ceiling: 6000
Heat Index: 56°   Visibility: 5mi
Dew Point: 54°   Wind: 0mph
Humidity: 93%   Direction: NA
Pressure: 29.84"   Gusts: NA
Location:  40.6873°N, 122.399°W
Report Text: KRDD 311601Z 00000KT 5SM -RA BR FEW009 SCT015 OVC060 13/12 A2984 RMK AO2 P0001 T01330122
Loading
Personal Weather Stations






























Interactive Weather Map
Tropical Storm Tracking
New forecast layout! Learn more

10-Day Weather Forecast

Advertisements
Track Severe Weather on mobile